Terminal Aerodrome Forecast
Issued by NWS Quad Cities IA IL

Home | Current Version | Previous Version | Text Only | Print | Product List | Glossary On
Versions: 1 2 3 4 5 6 7 8 9 10 11 12 13 14 15 16 17 18 19 20 21 22 23 24 25 26 27 28 29 30 31 32 33 34 35
734
FTUS43 KDVN 171121
TAFMLI
TAF
KMLI 171121Z 1712/1812 34003KT 1SM BR OVC002
     FM171400 27007KT 2SM BR OVC004
     FM171600 28009KT 5SM BR OVC006
     FM180100 28007KT 5SM BR BKN020=

USA.gov is the U.S. government's official web portal to all federal, state and local government web resources and services.